Time;durP1;ratioP1;P1;durP2;ratioP2;P2;SDS_P1;SDS_P2;PMS_P1;PMS_P2;Temp;Humidity;BMP_temperature;BMP_pressure;BME280_temperature;BME280_humidity;BME280_pressure;Samples;Min_cycle;Max_cycle;Signal;HPM_P1;HPM_P2
2021/08/14 00:00:48;;;;;;;5.38;1.77;;;;;;;21.37;60.63;101672.28;5017017;28;20045;-67
2021/08/14 00:03:14;;;;;;;4.30;1.50;;;;;;;21.37;60.64;101669.59;5024872;28;20490;-67
2021/08/14 00:05:39;;;;;;;5.10;2.10;;;;;;;21.38;60.70;101673.09;5003587;28;20472;-67
2021/08/14 00:08:05;;;;;;;5.38;1.67;;;;;;;21.37;60.96;101671.44;4995654;28;20045;-67
2021/08/14 00:10:30;;;;;;;5.60;2.08;;;;;;;21.37;60.84;101664.25;5018319;28;20060;-67
2021/08/14 00:12:56;;;;;;;4.55;1.77;;;;;;;21.36;60.75;101664.47;5025777;28;20045;-67
2021/08/14 00:15:21;;;;;;;4.88;1.90;;;;;;;21.36;60.57;101659.94;5031763;28;20041;-67
2021/08/14 00:17:47;;;;;;;4.38;1.80;;;;;;;21.36;60.55;101665.28;5031169;28;20025;-67
2021/08/14 00:20:12;;;;;;;4.63;1.52;;;;;;;21.37;60.54;101661.59;5016994;28;20061;-67
2021/08/14 00:22:38;;;;;;;3.90;1.67;;;;;;;21.36;60.53;101665.28;5019222;28;20046;-67
2021/08/14 00:25:04;;;;;;;4.22;1.70;;;;;;;21.37;60.62;101663.44;5035446;28;20061;-67
2021/08/14 00:27:30;;;;;;;4.35;1.73;;;;;;;21.36;60.87;101661.78;5030227;28;20117;-67
2021/08/14 00:29:55;;;;;;;4.72;1.92;;;;;;;21.36;60.69;101662.63;5013888;28;20398;-67
2021/08/14 00:32:21;;;;;;;5.80;2.10;;;;;;;21.35;60.78;101658.28;5027980;28;20032;-68
2021/08/14 00:34:46;;;;;;;6.75;2.15;;;;;;;21.35;60.58;101663.63;5024206;28;20032;-67
2021/08/14 00:37:11;;;;;;;5.05;1.80;;;;;;;21.35;60.68;101657.47;5016649;28;20566;-68
2021/08/14 00:39:37;;;;;;;5.35;2.35;;;;;;;21.35;60.26;101655.63;5018033;28;20633;-67
2021/08/14 00:42:03;;;;;;;4.18;1.92;;;;;;;21.34;60.43;101653.97;5031940;28;20033;-67
2021/08/14 00:44:29;;;;;;;5.15;1.90;;;;;;;21.35;60.35;101652.94;5051531;28;20037;-67
2021/08/14 00:46:55;;;;;;;4.13;1.80;;;;;;;21.35;60.68;101654.78;5012272;28;20107;-67
2021/08/14 00:49:20;;;;;;;4.00;1.90;;;;;;;21.34;60.51;101651.31;5040747;28;20037;-67
2021/08/14 00:51:46;;;;;;;4.07;1.98;;;;;;;21.34;60.34;101643.28;5031371;28;20041;-69
2021/08/14 00:54:11;;;;;;;5.55;1.83;;;;;;;21.34;60.64;101645.13;5037931;28;20551;-67
2021/08/14 00:56:37;;;;;;;3.83;1.90;;;;;;;21.34;60.51;101645.97;5049168;28;20029;-67
2021/08/14 00:59:06;;;;;;;5.05;1.70;;;;;;;21.35;60.74;101650.28;5039938;28;20041;-68
2021/08/14 01:01:33;;;;;;;5.60;1.75;;;;;;;21.35;60.43;101649.47;5026823;28;20037;-67
2021/08/14 01:03:59;;;;;;;4.05;1.70;;;;;;;21.34;60.53;101659.31;5023182;28;20052;-67
2021/08/14 01:06:25;;;;;;;2.88;1.60;;;;;;;21.33;60.79;101655.00;5030210;28;20117;-67
2021/08/14 01:08:52;;;;;;;4.47;1.70;;;;;;;21.34;60.49;101648.63;5043200;28;20045;-67
2021/08/14 01:11:18;;;;;;;3.95;1.92;;;;;;;21.33;60.51;101654.16;5038391;28;20049;-67
2021/08/14 01:13:45;;;;;;;3.75;1.85;;;;;;;21.34;60.44;101639.81;5043682;28;20030;-67
2021/08/14 01:16:11;;;;;;;3.13;1.60;;;;;;;21.33;60.74;101641.66;5029991;28;20046;-68
2021/08/14 01:18:44;;;;;;;3.35;1.60;;;;;;;21.32;60.59;101641.84;5033454;28;20067;-67
2021/08/14 01:21:14;;;;;;;4.55;1.95;;;;;;;21.33;60.28;101646.97;5019869;28;20099;-67
2021/08/14 01:23:41;;;;;;;4.72;1.90;;;;;;;21.33;60.14;101640.81;5040286;28;20071;-67
2021/08/14 01:26:09;;;;;;;4.25;1.95;;;;;;;21.33;60.05;101646.16;5039314;28;20048;-67
2021/08/14 01:28:35;;;;;;;3.88;1.75;;;;;;;21.33;60.11;101655.00;5030151;28;20038;-67
2021/08/14 01:31:03;;;;;;;4.40;2.08;;;;;;;21.32;60.23;101653.34;5043419;28;20503;-67
2021/08/14 01:33:32;;;;;;;3.95;1.65;;;;;;;21.31;60.04;101651.69;5018423;28;20041;-67
2021/08/14 01:35:58;;;;;;;4.28;2.00;;;;;;;21.33;60.14;101655.00;5027788;28;20365;-67
2021/08/14 01:38:23;;;;;;;4.68;1.95;;;;;;;21.32;60.05;101657.84;5041089;28;20033;-67
2021/08/14 01:40:49;;;;;;;5.93;2.30;;;;;;;21.33;60.22;101659.50;5046894;28;20451;-67
2021/08/14 01:43:14;;;;;;;3.10;1.63;;;;;;;21.33;60.11;101656.84;5032201;28;20037;-67
2021/08/14 01:45:40;;;;;;;6.13;1.70;;;;;;;21.33;60.10;101663.00;5030822;28;20030;-67
2021/08/14 01:48:06;;;;;;;4.32;1.77;;;;;;;21.32;60.35;101657.84;5022297;28;20034;-68
2021/08/14 01:50:31;;;;;;;4.43;1.70;;;;;;;21.32;60.16;101655.19;5037306;28;20039;-67
2021/08/14 01:52:57;;;;;;;4.40;1.70;;;;;;;21.31;59.91;101657.03;5017051;28;20762;-67
2021/08/14 01:55:23;;;;;;;4.53;1.73;;;;;;;21.33;60.21;101656.84;5021635;28;20561;-67
2021/08/14 01:57:48;;;;;;;4.97;1.50;;;;;;;21.32;59.87;101661.34;5031904;28;20034;-67
2021/08/14 02:00:14;;;;;;;3.10;1.70;;;;;;;21.31;60.24;101659.69;5020468;28;20034;-67
2021/08/14 02:02:40;;;;;;;4.90;1.73;;;;;;;21.32;60.28;101660.50;5029768;28;20516;-68
2021/08/14 02:05:06;;;;;;;5.43;1.83;;;;;;;21.31;60.43;101665.03;5030551;28;20068;-68
2021/08/14 02:07:32;;;;;;;4.85;1.70;;;;;;;21.32;59.98;101661.34;5041901;28;20052;-67
2021/08/14 02:09:57;;;;;;;3.33;1.73;;;;;;;21.31;60.12;101650.84;5044016;28;20029;-67
2021/08/14 02:12:23;;;;;;;6.40;2.22;;;;;;;21.31;59.90;101654.34;5025515;28;20042;-67
2021/08/14 02:14:48;;;;;;;3.60;1.70;;;;;;;21.30;60.01;101644.66;5021433;28;20044;-67
2021/08/14 02:17:14;;;;;;;3.60;1.48;;;;;;;21.32;60.05;101652.50;5036013;28;20048;-67
2021/08/14 02:19:39;;;;;;;3.10;1.75;;;;;;;21.32;59.95;101650.66;5019068;28;20033;-67
2021/08/14 02:22:05;;;;;;;5.50;2.00;;;;;;;21.31;60.12;101642.84;5023910;28;20411;-67
2021/08/14 02:24:30;;;;;;;5.03;1.60;;;;;;;21.31;59.71;101640.19;5043193;28;20088;-67
2021/08/14 02:26:56;;;;;;;4.03;1.65;;;;;;;21.31;59.89;101646.34;5032162;28;20095;-68
2021/08/14 02:29:21;;;;;;;5.13;2.25;;;;;;;21.31;59.89;101642.84;5030246;28;20033;-67
2021/08/14 02:31:47;;;;;;;3.85;1.70;;;;;;;21.31;59.68;101646.34;5028519;28;20360;-67
2021/08/14 02:34:12;;;;;;;5.45;2.08;;;;;;;21.31;59.90;101650.84;5041122;28;20049;-67
2021/08/14 02:36:38;;;;;;;4.13;1.85;;;;;;;21.30;60.10;101647.34;5025879;28;20409;-67
2021/08/14 02:39:04;;;;;;;4.10;1.95;;;;;;;21.30;60.07;101644.66;5041862;28;20022;-68
2021/08/14 02:41:29;;;;;;;2.35;1.67;;;;;;;21.31;59.68;101648.19;5017117;28;20037;-67
2021/08/14 02:43:55;;;;;;;3.47;1.55;;;;;;;21.30;60.05;101644.66;5008334;28;20096;-67
2021/08/14 02:46:21;;;;;;;5.38;1.90;;;;;;;21.31;59.75;101650.84;5017050;28;20048;-67
2021/08/14 02:48:47;;;;;;;4.20;1.60;;;;;;;21.30;59.82;101647.34;5015307;28;20052;-67
2021/08/14 02:51:13;;;;;;;4.35;1.70;;;;;;;21.30;59.70;101644.66;5028753;28;20544;-67
2021/08/14 02:53:39;;;;;;;3.80;1.85;;;;;;;21.30;59.75;101641.16;5042553;28;20040;-67
2021/08/14 02:56:05;;;;;;;3.88;1.65;;;;;;;21.30;60.06;101634.00;5038325;28;20048;-67
2021/08/14 02:58:30;;;;;;;3.28;1.40;;;;;;;21.29;59.61;101637.69;5049204;28;20025;-67
2021/08/14 03:00:55;;;;;;;4.05;1.73;;;;;;;21.30;59.95;101635.84;5033726;28;20360;-68
2021/08/14 03:03:21;;;;;;;3.58;1.80;;;;;;;21.28;59.99;101625.34;5028618;28;20041;-67
2021/08/14 03:05:46;;;;;;;4.93;1.60;;;;;;;21.29;59.74;101621.66;5037245;28;20454;-67
2021/08/14 03:08:12;;;;;;;3.85;1.50;;;;;;;21.28;59.70;101622.69;5034560;28;20369;-67
2021/08/14 03:10:39;;;;;;;5.22;1.65;;;;;;;21.30;59.99;101630.50;5041531;28;20060;-68
2021/08/14 03:13:05;;;;;;;4.35;1.98;;;;;;;21.29;59.82;101624.31;5048392;28;20082;-67
2021/08/14 03:15:30;;;;;;;4.38;1.73;;;;;;;21.29;59.44;101627.00;5029344;28;20107;-68
2021/08/14 03:17:56;;;;;;;3.50;1.65;;;;;;;21.28;59.51;101630.69;5030217;28;20040;-68
2021/08/14 03:20:21;;;;;;;4.68;1.83;;;;;;;21.28;59.39;101630.69;5034292;28;20036;-67
2021/08/14 03:22:47;;;;;;;7.18;2.17;;;;;;;21.28;59.40;101635.19;5038171;28;20025;-67
2021/08/14 03:25:12;;;;;;;3.80;1.80;;;;;;;21.29;59.78;101634.19;5025723;28;20072;-67
2021/08/14 03:27:38;;;;;;;5.78;1.80;;;;;;;21.28;59.56;101636.03;5039263;28;20057;-67
2021/08/14 03:30:04;;;;;;;3.35;1.70;;;;;;;21.28;59.43;101649.38;5029992;28;20033;-69
2021/08/14 03:32:30;;;;;;;5.47;2.20;;;;;;;21.28;59.83;101652.03;5046839;28;20047;-67
2021/08/14 03:34:55;;;;;;;6.22;1.90;;;;;;;21.28;59.80;101652.03;5034986;28;20401;-68
2021/08/14 03:37:20;;;;;;;4.07;1.70;;;;;;;21.28;59.65;101643.19;5029375;28;20032;-67
2021/08/14 03:39:46;;;;;;;5.10;1.70;;;;;;;21.28;59.83;101640.53;5019049;28;20191;-68
2021/08/14 03:42:11;;;;;;;4.13;1.90;;;;;;;21.28;59.86;101644.03;5042196;28;20037;-68
2021/08/14 03:44:37;;;;;;;3.65;1.80;;;;;;;21.29;59.71;101642.19;5026346;28;20531;-67
2021/08/14 03:47:02;;;;;;;3.17;1.50;;;;;;;21.29;59.75;101642.19;5011243;28;20040;-67
2021/08/14 03:49:28;;;;;;;4.18;1.40;;;;;;;21.28;59.51;101633.34;5039663;28;20068;-68
2021/08/14 03:51:53;;;;;;;4.05;1.80;;;;;;;21.27;59.76;101634.38;5052333;28;20469;-67
2021/08/14 03:54:19;;;;;;;3.20;1.70;;;;;;;21.28;59.81;101637.88;5036851;28;20071;-67
2021/08/14 03:56:44;;;;;;;5.32;1.90;;;;;;;21.28;59.62;101635.19;5038663;28;20044;-68
2021/08/14 03:59:10;;;;;;;5.15;1.70;;;;;;;21.28;59.86;101635.19;5019541;28;20068;-67
2021/08/14 04:01:35;;;;;;;3.08;1.60;;;;;;;21.28;59.62;101645.88;5047008;28;20045;-67
2021/08/14 04:04:01;;;;;;;4.40;1.83;;;;;;;21.28;59.71;101646.69;5003749;28;20037;-67
2021/08/14 04:06:26;;;;;;;2.75;1.52;;;;;;;21.27;59.72;101642.38;5035544;28;20443;-68
2021/08/14 04:08:52;;;;;;;3.80;1.77;;;;;;;21.27;59.84;101645.03;5037550;28;20029;-67
2021/08/14 04:11:17;;;;;;;4.00;1.60;;;;;;;21.28;59.69;101640.53;5041656;28;20029;-68
2021/08/14 04:13:42;;;;;;;4.85;1.73;;;;;;;21.27;59.87;101639.72;5040242;28;20033;-67
2021/08/14 04:16:08;;;;;;;3.78;1.92;;;;;;;21.28;60.19;101641.34;5040765;28;20048;-67
2021/08/14 04:18:33;;;;;;;3.75;1.60;;;;;;;21.28;59.99;101638.69;5018482;28;20504;-67
2021/08/14 04:20:59;;;;;;;2.88;1.60;;;;;;;21.28;60.11;101640.53;5045757;28;20029;-67
2021/08/14 04:23:24;;;;;;;4.05;1.75;;;;;;;21.27;59.95;101642.38;5031396;28;20062;-67
2021/08/14 04:25:50;;;;;;;4.35;1.80;;;;;;;21.27;59.81;101645.03;5016352;28;20109;-68
2021/08/14 04:28:15;;;;;;;5.03;1.75;;;;;;;21.27;59.93;101639.72;5049523;28;20037;-67
2021/08/14 04:30:41;;;;;;;3.05;1.40;;;;;;;21.26;59.98;101640.72;5041015;28;20032;-67
2021/08/14 04:33:06;;;;;;;4.40;1.77;;;;;;;21.27;60.08;101636.22;5051066;28;20060;-67
2021/08/14 04:35:32;;;;;;;3.78;1.70;;;;;;;21.27;60.03;101639.72;5041209;28;20373;-67
2021/08/14 04:37:57;;;;;;;3.90;1.73;;;;;;;21.26;59.98;101646.06;5042035;28;20498;-67
2021/08/14 04:40:23;;;;;;;4.70;1.73;;;;;;;21.27;59.75;101644.22;4999431;28;20061;-67
2021/08/14 04:42:49;;;;;;;4.22;1.80;;;;;;;21.27;59.79;101645.03;5039787;28;20032;-67
2021/08/14 04:45:15;;;;;;;4.32;1.80;;;;;;;21.27;59.51;101641.53;5017786;28;20040;-68
2021/08/14 04:47:41;;;;;;;4.07;1.70;;;;;;;21.26;59.62;101643.38;5019419;28;20036;-67
2021/08/14 04:50:08;;;;;;;4.38;2.03;;;;;;;21.26;59.61;101643.38;5037518;28;20092;-68
2021/08/14 04:52:34;;;;;;;3.53;1.70;;;;;;;21.26;60.00;101648.72;5049609;28;20040;-69
2021/08/14 04:55:00;;;;;;;4.68;1.90;;;;;;;21.27;59.80;101646.88;5026818;28;20057;-67
2021/08/14 04:57:26;;;;;;;2.88;1.60;;;;;;;21.26;60.16;101648.72;5031591;28;20117;-67
2021/08/14 04:59:51;;;;;;;2.88;1.40;;;;;;;21.26;59.95;101651.41;5016999;28;20052;-67
2021/08/14 05:02:17;;;;;;;4.07;1.70;;;;;;;21.25;60.05;101652.41;5045183;28;20122;-68
2021/08/14 05:04:43;;;;;;;3.38;1.48;;;;;;;21.25;60.13;101657.75;5033973;28;20045;-67
2021/08/14 05:07:09;;;;;;;5.15;1.80;;;;;;;21.25;59.66;101660.41;5034327;28;20041;-67
2021/08/14 05:09:36;;;;;;;4.60;1.60;;;;;;;21.26;59.66;101654.06;5037408;28;20022;-67
2021/08/14 05:12:01;;;;;;;4.18;1.92;;;;;;;21.25;59.74;101660.41;5037900;28;20044;-67
2021/08/14 05:14:27;;;;;;;4.43;1.95;;;;;;;21.26;60.00;101659.41;5029893;28;20033;-68
2021/08/14 05:16:52;;;;;;;4.10;1.63;;;;;;;21.25;59.95;101657.75;5027076;28;20041;-67
2021/08/14 05:19:18;;;;;;;3.55;1.70;;;;;;;21.25;59.93;101668.44;5024980;28;20037;-67
2021/08/14 05:21:43;;;;;;;3.50;2.05;;;;;;;21.26;59.77;101659.41;5009165;28;20033;-68
2021/08/14 05:24:09;;;;;;;4.28;1.75;;;;;;;21.25;60.01;101663.09;5037522;28;20061;-67
2021/08/14 05:26:34;;;;;;;3.30;1.63;;;;;;;21.26;59.73;101658.56;5028463;28;20109;-67
2021/08/14 05:29:00;;;;;;;3.55;1.50;;;;;;;21.25;59.73;101655.09;5030018;28;20033;-67
2021/08/14 05:31:25;;;;;;;4.03;2.00;;;;;;;21.25;59.59;101657.75;5035113;28;20133;-67
2021/08/14 05:33:51;;;;;;;3.00;1.55;;;;;;;21.25;59.82;101656.94;5007768;28;20107;-67
2021/08/14 05:36:16;;;;;;;4.60;1.85;;;;;;;21.24;59.73;101650.72;5022940;28;20038;-68
2021/08/14 05:38:42;;;;;;;3.53;1.67;;;;;;;21.25;59.74;101655.09;5047792;28;20502;-67
2021/08/14 05:41:07;;;;;;;3.63;1.75;;;;;;;21.25;59.86;101651.59;5048342;28;20033;-67
2021/08/14 05:43:33;;;;;;;3.83;1.48;;;;;;;21.25;59.56;101656.94;5017301;28;20061;-67
2021/08/14 05:45:59;;;;;;;3.75;1.88;;;;;;;21.24;59.58;101658.72;5049588;28;20029;-68
2021/08/14 05:48:25;;;;;;;3.00;1.55;;;;;;;21.25;59.80;101663.09;5015658;28;20450;-67
2021/08/14 05:50:50;;;;;;;3.25;1.92;;;;;;;21.24;59.81;101661.41;5045546;28;20114;-67
2021/08/14 05:53:18;;;;;;;4.55;1.83;;;;;;;21.24;59.49;101664.06;5043529;28;20055;-69
2021/08/14 05:55:45;;;;;;;3.88;1.52;;;;;;;21.25;59.74;101662.25;5029093;28;20087;-68
2021/08/14 05:58:11;;;;;;;4.03;1.80;;;;;;;21.23;59.49;101665.09;5033118;28;20198;-67
2021/08/14 06:00:36;;;;;;;2.97;1.63;;;;;;;21.23;59.61;101660.56;5017377;28;20184;-68
2021/08/14 06:03:02;;;;;;;3.38;1.60;;;;;;;21.25;59.56;101659.59;5022404;28;20041;-68
2021/08/14 06:05:27;;;;;;;3.42;1.73;;;;;;;21.23;59.50;101665.91;5020629;28;20464;-67
2021/08/14 06:07:53;;;;;;;5.45;2.15;;;;;;;21.22;59.51;101663.44;5036732;28;20111;-67
2021/08/14 06:10:19;;;;;;;4.03;1.63;;;;;;;21.23;59.71;101671.25;5019653;28;20069;-68
2021/08/14 06:12:45;;;;;;;2.65;1.40;;;;;;;21.22;59.72;101672.28;5027661;28;20496;-67
2021/08/14 06:15:12;;;;;;;4.32;1.95;;;;;;;21.22;59.43;101669.59;5025463;28;20049;-67
2021/08/14 06:17:37;;;;;;;4.28;2.08;;;;;;;21.23;59.63;101670.44;5029701;28;20040;-67
2021/08/14 06:20:04;;;;;;;2.92;1.65;;;;;;;21.23;59.99;101670.44;5023042;28;20061;-67
2021/08/14 06:22:30;;;;;;;3.58;1.80;;;;;;;21.23;59.80;101675.75;5054057;28;20056;-71
2021/08/14 06:24:55;;;;;;;9.63;2.33;;;;;;;21.22;60.06;101666.94;5037357;28;20652;-67
2021/08/14 06:27:21;;;;;;;7.18;2.05;;;;;;;21.23;60.37;101667.75;5036452;28;20036;-67
2021/08/14 06:29:47;;;;;;;8.95;2.08;;;;;;;21.24;60.76;101677.41;5045816;28;20033;-67
2021/08/14 06:32:13;;;;;;;11.25;2.03;;;;;;;21.25;61.14;101675.59;5025521;28;20797;-67
2021/08/14 06:34:38;;;;;;;5.15;1.63;;;;;;;21.24;60.81;101674.75;5015537;28;20213;-67
2021/08/14 06:37:04;;;;;;;7.47;1.95;;;;;;;21.26;61.22;101670.06;5027468;28;20029;-65
2021/08/14 06:39:30;;;;;;;5.55;1.70;;;;;;;21.27;61.07;101665.56;5034662;28;20037;-68
2021/08/14 06:41:56;;;;;;;5.95;2.03;;;;;;;21.27;61.29;101671.72;5011020;28;20042;-68
2021/08/14 06:44:21;;;;;;;7.28;2.05;;;;;;;21.27;61.50;101670.91;5007945;28;20049;-70
2021/08/14 06:46:47;;;;;;;6.10;1.75;;;;;;;21.27;61.54;101678.91;5020286;28;20029;-69
2021/08/14 06:49:12;;;;;;;3.88;1.85;;;;;;;21.28;61.86;101675.22;5045914;28;20033;-69
2021/08/14 06:51:38;;;;;;;10.77;1.98;;;;;;;21.27;61.84;101668.25;5044295;28;20076;-69
2021/08/14 06:54:04;;;;;;;10.73;2.20;;;;;;;21.29;61.96;101663.53;5020242;28;20083;-68
2021/08/14 06:56:30;;;;;;;9.73;2.00;;;;;;;21.28;62.15;101662.72;5043170;28;20439;-70
2021/08/14 06:58:55;;;;;;;17.48;2.42;;;;;;;21.29;61.91;101666.19;5039341;28;20043;-66
2021/08/14 07:01:21;;;;;;;7.35;1.85;;;;;;;21.30;62.50;101662.50;5023449;28;20041;-70
2021/08/14 07:03:46;;;;;;;6.63;1.98;;;;;;;21.30;62.44;101660.69;5023243;28;20051;-68
2021/08/14 07:06:20;;;;;;;5.60;2.10;;;;;;;21.29;62.61;101669.69;5044373;28;20032;-68
2021/08/14 07:08:46;;;;;;;14.05;1.95;;;;;;;21.33;62.35;101672.84;5044537;28;20139;-69
2021/08/14 07:11:12;;;;;;;4.60;1.73;;;;;;;21.33;62.86;101668.34;4993860;28;20119;-69
2021/08/14 07:13:38;;;;;;;9.88;1.83;;;;;;;21.34;62.85;101671.81;5022275;28;20140;-70
2021/08/14 07:16:03;;;;;;;8.10;1.83;;;;;;;21.34;62.79;101677.16;5041540;28;20033;-69
2021/08/14 07:18:30;;;;;;;8.73;3.08;;;;;;;21.33;62.69;101681.69;5044119;28;20128;-70
2021/08/14 07:20:55;;;;;;;4.30;1.92;;;;;;;21.34;62.53;101677.16;5027540;28;20037;-69
2021/08/14 07:23:20;;;;;;;4.43;1.75;;;;;;;21.34;62.72;101671.81;5027558;28;20053;-68
2021/08/14 07:25:46;;;;;;;7.07;1.90;;;;;;;21.34;62.88;101672.66;4997409;28;20045;-70
2021/08/14 07:28:11;;;;;;;7.50;2.22;;;;;;;21.34;62.67;101674.50;5046926;28;20040;-67
2021/08/14 07:30:37;;;;;;;10.02;2.53;;;;;;;21.33;62.56;101679.00;5013743;28;20033;-69
2021/08/14 07:33:03;;;;;;;5.47;1.77;;;;;;;21.34;62.96;101675.31;5027782;28;20048;-68
2021/08/14 07:35:28;;;;;;;3.38;1.83;;;;;;;21.35;62.79;101670.81;5046828;28;20739;-69
2021/08/14 07:37:53;;;;;;;8.30;2.28;;;;;;;21.35;63.14;101678.81;5030077;28;20503;-69
2021/08/14 07:40:24;;;;;;;6.28;2.15;;;;;;;21.35;63.10;101674.31;5047872;28;20065;-71
2021/08/14 07:42:49;;;;;;;10.70;2.63;;;;;;;21.35;63.14;101687.66;5028322;28;20037;-69
2021/08/14 07:45:17;;;;;;;9.65;2.35;;;;;;;21.37;63.22;101682.13;5048177;28;20576;-69
2021/08/14 07:47:45;;;;;;;7.47;2.47;;;;;;;21.37;62.81;101688.28;5045323;28;20567;-70
2021/08/14 07:50:14;;;;;;;7.78;2.30;;;;;;;21.38;63.19;101683.78;5031231;28;20738;-71
2021/08/14 07:52:40;;;;;;;7.50;2.30;;;;;;;21.37;63.06;101677.59;5047246;28;20116;-68
2021/08/14 07:55:05;;;;;;;9.77;2.45;;;;;;;21.38;62.90;101681.94;5029553;28;20139;-67
2021/08/14 07:57:31;;;;;;;9.73;2.35;;;;;;;21.39;62.95;101688.91;5027594;28;20041;-66
2021/08/14 07:59:58;;;;;;;8.02;2.80;;;;;;;21.40;63.17;101684.41;5033063;28;20379;-67
2021/08/14 08:02:24;;;;;;;15.50;2.70;;;;;;;21.39;63.02;101694.25;5045460;28;20048;-68
2021/08/14 08:04:49;;;;;;;8.90;2.53;;;;;;;21.40;63.10;101687.09;4999992;28;21338;-67
2021/08/14 08:07:14;;;;;;;10.70;2.47;;;;;;;21.39;62.84;101686.25;5012759;28;20042;-67
2021/08/14 08:09:40;;;;;;;8.80;2.22;;;;;;;21.38;62.80;101684.59;5018510;28;20048;-66
2021/08/14 08:12:06;;;;;;;6.45;2.42;;;;;;;21.39;62.82;101680.09;5043554;28;20136;-66
2021/08/14 08:14:31;;;;;;;7.43;2.33;;;;;;;21.39;63.03;101672.91;5017629;28;20036;-66
2021/08/14 08:16:57;;;;;;;9.15;2.25;;;;;;;21.39;62.86;101677.41;5041355;28;20094;-69
2021/08/14 08:19:22;;;;;;;11.43;2.50;;;;;;;21.38;62.87;101665.91;5007355;28;20052;-66
2021/08/14 08:21:48;;;;;;;9.68;2.75;;;;;;;21.37;62.72;101672.28;5039890;28;20044;-68
2021/08/14 08:24:13;;;;;;;10.43;2.35;;;;;;;21.37;62.54;101677.59;5024720;28;20438;-66
2021/08/14 08:26:38;;;;;;;7.60;2.50;;;;;;;21.38;63.04;101681.09;4988710;28;20574;-67
2021/08/14 08:29:04;;;;;;;9.82;2.58;;;;;;;21.38;62.74;101683.78;5031704;28;20499;-68
2021/08/14 08:31:31;;;;;;;6.72;2.20;;;;;;;21.37;62.79;101685.63;5003812;28;20107;-69
2021/08/14 08:33:56;;;;;;;11.05;2.92;;;;;;;21.39;62.86;101680.91;5034126;28;20500;-69
2021/08/14 08:36:22;;;;;;;11.57;2.70;;;;;;;21.38;63.21;101689.13;5035299;28;20033;-68
2021/08/14 08:38:47;;;;;;;19.13;3.30;;;;;;;21.38;62.85;101691.78;5041530;28;20033;-66
2021/08/14 08:41:16;;;;;;;8.40;2.67;;;;;;;21.38;62.66;101695.28;5040832;28;20037;-69
2021/08/14 08:43:42;;;;;;;13.25;3.08;;;;;;;21.38;62.84;101691.78;5032640;28;20480;-70
2021/08/14 08:46:11;;;;;;;10.13;2.67;;;;;;;21.36;62.67;101702.66;5036041;28;20034;-70
2021/08/14 08:48:43;;;;;;;11.30;2.22;;;;;;;21.37;62.79;101706.97;5026509;28;20036;-67
2021/08/14 08:51:10;;;;;;;10.23;2.90;;;;;;;21.37;62.74;101698.97;5017352;28;20037;-69
2021/08/14 08:53:36;;;;;;;7.85;3.30;;;;;;;21.37;62.80;101698.13;5042876;28;20041;-68
2021/08/14 08:56:01;;;;;;;8.07;2.65;;;;;;;21.37;62.95;101698.97;5045947;28;20049;-67
2021/08/14 08:58:27;;;;;;;10.50;2.80;;;;;;;21.37;62.95;101695.47;5016066;28;20038;-65
2021/08/14 09:00:53;;;;;;;7.05;2.97;;;;;;;21.37;62.76;101690.94;5031595;28;20429;-65
2021/08/14 09:03:25;;;;;;;7.97;2.95;;;;;;;21.35;62.76;101687.66;5015983;28;20060;-65
2021/08/14 09:05:52;;;;;;;12.05;2.92;;;;;;;21.37;62.56;101679.44;5026628;28;20572;-65
2021/08/14 09:08:18;;;;;;;9.85;3.05;;;;;;;21.37;62.48;101671.44;5050185;28;20036;-65
2021/08/14 09:10:44;;;;;;;11.30;3.40;;;;;;;21.36;62.49;101667.13;5044498;28;20033;-65
2021/08/14 09:13:28;;;;;;;9.75;3.05;;;;;;;21.33;62.68;101664.84;5048011;28;20047;-66
2021/08/14 09:15:53;;;;;;;7.72;2.85;;;;;;;21.36;62.79;101662.63;5048078;28;20037;-66
2021/08/14 09:18:19;;;;;;;14.55;3.20;;;;;;;21.37;62.90;101666.09;5019890;28;20124;-65
2021/08/14 09:20:53;;;;;;;9.15;3.03;;;;;;;21.35;62.61;101673.47;5047547;28;20041;-65
2021/08/14 09:23:20;;;;;;;13.38;3.70;;;;;;;21.36;62.45;101664.47;5036795;28;20053;-65
2021/08/14 09:25:53;;;;;;;37.42;4.28;;;;;;;21.35;62.70;101679.66;5045865;28;20041;-67
2021/08/14 09:28:34;;;;;;;10.93;3.10;;;;;;;21.33;62.42;101673.66;5042535;28;20144;-66
2021/08/14 09:31:02;;;;;;;14.32;2.83;;;;;;;21.35;62.19;101676.97;5050017;28;20051;-66
2021/08/14 09:33:37;;;;;;;11.50;3.15;;;;;;;21.33;62.08;101676.34;5039694;28;20443;-66
2021/08/14 09:36:09;;;;;;;9.55;2.88;;;;;;;21.32;61.88;101674.69;5048691;28;20025;-66
2021/08/14 09:38:43;;;;;;;10.32;3.17;;;;;;;21.29;61.86;101677.69;5030636;28;20045;-66
2021/08/14 09:41:18;;;;;;;10.43;2.78;;;;;;;21.29;61.70;101680.38;5014534;28;20041;-68
2021/08/14 09:43:44;;;;;;;;;;;;;;;21.18;61.61;101679.00;5038963;28;20238;-67
2021/08/14 09:46:10;;;;;;;11.48;3.00;;;;;;;21.25;61.59;101679.09;5039601;28;20583;-66
2021/08/14 09:48:36;;;;;;;11.35;3.65;;;;;;;21.24;61.37;101672.06;5031025;28;20029;-67
2021/08/14 09:51:02;;;;;;;7.50;3.00;;;;;;;21.23;61.12;101675.75;5026342;28;20036;-67
2021/08/14 09:53:31;;;;;;;8.18;3.38;;;;;;;21.22;61.19;101669.59;5025659;28;20393;-67
2021/08/14 09:56:04;;;;;;;8.32;2.95;;;;;;;21.17;60.70;101669.34;5047695;28;20040;-68
2021/08/14 09:58:31;;;;;;;9.98;3.80;;;;;;;21.18;60.84;101672.84;5046189;28;20040;-68
2021/08/14 10:00:59;;;;;;;9.90;3.20;;;;;;;21.15;60.64;101671.38;5044056;28;20068;-68
2021/08/14 10:03:25;;;;;;;11.35;3.20;;;;;;;21.16;60.61;101675.69;5042662;28;20029;-68
2021/08/14 10:05:51;;;;;;;14.30;3.97;;;;;;;21.15;60.75;101686.56;5028555;28;20036;-68
2021/08/14 10:08:18;;;;;;;9.98;3.45;;;;;;;21.15;60.75;101681.22;5048832;28;20040;-69
2021/08/14 10:10:44;;;;;;;14.05;3.33;;;;;;;21.15;60.87;101690.06;5030123;28;20039;-69
2021/08/14 10:13:11;;;;;;;11.77;3.08;;;;;;;21.14;60.68;101683.03;5048728;28;20107;-68
2021/08/14 10:15:37;;;;;;;9.23;4.00;;;;;;;21.14;60.52;101690.22;5043853;28;20034;-68
2021/08/14 10:18:03;;;;;;;8.20;3.00;;;;;;;21.13;60.70;101696.56;5039867;28;20035;-68
2021/08/14 10:20:30;;;;;;;10.95;3.10;;;;;;;21.13;60.54;101701.91;5048755;28;20029;-68
2021/08/14 10:23:09;;;;;;;8.77;2.78;;;;;;;21.12;60.78;101693.06;5046902;28;20057;-69
2021/08/14 10:25:37;;;;;;;8.23;3.15;;;;;;;21.12;60.42;101684.22;5008163;28;20042;-68
2021/08/14 10:28:05;;;;;;;8.98;3.13;;;;;;;21.12;60.45;101684.22;5019182;28;21360;-68
2021/08/14 10:30:42;;;;;;;8.98;3.17;;;;;;;21.09;60.26;101692.63;5023954;28;20022;-68
2021/08/14 10:33:29;;;;;;;8.30;2.90;;;;;;;21.09;60.52;101696.09;5016407;28;20390;-69
2021/08/14 10:35:55;;;;;;;9.35;3.17;;;;;;;21.08;60.44;101691.78;4997045;28;20037;-69
2021/08/14 10:38:47;;;;;;;8.40;3.42;;;;;;;21.05;60.58;101689.50;5020747;28;20029;-68
2021/08/14 10:41:13;;;;;;;8.75;3.38;;;;;;;21.08;60.91;101675.78;5004657;28;20091;-69
2021/08/14 10:43:54;;;;;;;7.45;3.33;;;;;;;21.05;60.64;101670.00;5013419;28;20068;-68
2021/08/14 10:46:42;;;;;;;6.20;2.63;;;;;;;21.04;60.88;101668.34;5024710;28;20060;-68
2021/08/14 10:49:13;;;;;;;7.95;3.03;;;;;;;21.08;60.95;101672.28;5020270;28;20045;-69
2021/08/14 10:51:47;;;;;;;7.45;3.30;;;;;;;21.03;60.39;101674.69;5029416;28;20048;-69
2021/08/14 10:54:14;;;;;;;9.27;3.38;;;;;;;21.05;60.44;101678.00;5023320;28;20041;-68
2021/08/14 10:57:02;;;;;;;6.88;2.60;;;;;;;21.01;60.45;101677.56;5022805;28;20036;-68
2021/08/14 11:02:09;;;;;;;8.35;3.35;;;;;;;21.03;61.03;101670.19;5020488;28;20046;-69
2021/08/14 11:04:53;;;;;;;6.32;3.30;;;;;;;21.04;61.09;101661.16;5022789;28;20081;-69
2021/08/14 11:09:53;;;;;;;17.23;7.13;;;;;;;21.07;62.41;101660.78;5014335;28;20033;-68
2021/08/14 11:12:30;;;;;;;14.90;6.25;;;;;;;21.09;63.03;101665.94;4999928;28;20049;-68
2021/08/14 11:15:13;;;;;;;13.55;5.82;;;;;;;21.12;63.47;101677.06;5022715;28;20072;-68
2021/08/14 11:17:39;;;;;;;20.77;7.38;;;;;;;21.18;64.13;101681.66;5028520;28;20069;-68
2021/08/14 11:20:25;;;;;;;21.05;7.30;;;;;;;21.22;64.69;101679.44;5004088;28;20080;-69
2021/08/14 11:22:52;;;;;;;17.42;6.55;;;;;;;21.25;65.21;101684.44;5012806;28;20466;-70
2021/08/14 11:25:32;;;;;;;17.08;6.45;;;;;;;21.22;64.65;101672.28;5022725;28;20034;-69
2021/08/14 11:28:21;;;;;;;13.35;4.85;;;;;;;21.21;64.76;101673.28;5022394;28;20496;-68